sensor_id;sensor_type;location;lat;lon;timestamp;pressure;altitude;pressure_sealevel;temperature
68446;BMP280;35789;48.414;12.768;2023-04-24T00:00:02;96150.0;;;
68446;BMP280;35789;48.414;12.768;2023-04-24T00:05:01;96150.0;;;
68446;BMP280;35789;48.414;12.768;2023-04-24T00:10:00;96150.0;;;
68446;BMP280;35789;48.414;12.768;2023-04-24T00:15:00;96150.0;;;
68446;BMP280;35789;48.414;12.768;2023-04-24T00:20:00;96150.0;;;
68446;BMP280;35789;48.414;12.768;2023-04-24T00:25:00;96140.0;;;
68446;BMP280;35789;48.414;12.768;2023-04-24T00:30:00;96140.0;;;
68446;BMP280;35789;48.414;12.768;2023-04-24T00:35:00;96140.0;;;
68446;BMP280;35789;48.414;12.768;2023-04-24T00:40:00;96140.0;;;
68446;BMP280;35789;48.414;12.768;2023-04-24T00:45:02;96130.0;;;
68446;BMP280;35789;48.414;12.768;2023-04-24T00:50:01;96130.0;;;
68446;BMP280;35789;48.414;12.768;2023-04-24T00:55:00;96130.0;;;
68446;BMP280;35789;48.414;12.768;2023-04-24T01:00:00;96120.0;;;
68446;BMP280;35789;48.414;12.768;2023-04-24T01:05:00;96110.0;;;
68446;BMP280;35789;48.414;12.768;2023-04-24T01:10:00;96110.0;;;
68446;BMP280;35789;48.414;12.768;2023-04-24T01:15:00;96120.0;;;
68446;BMP280;35789;48.414;12.768;2023-04-24T01:20:01;96110.0;;;
68446;BMP280;35789;48.414;12.768;2023-04-24T01:25:01;96110.0;;;
68446;BMP280;35789;48.414;12.768;2023-04-24T01:30:00;96110.0;;;
68446;BMP280;35789;48.414;12.768;2023-04-24T01:35:01;96110.0;;;
68446;BMP280;35789;48.414;12.768;2023-04-24T01:40:00;96100.0;;;
68446;BMP280;35789;48.414;12.768;2023-04-24T01:45:04;96100.0;;;
68446;BMP280;35789;48.414;12.768;2023-04-24T01:50:00;96100.0;;;
68446;BMP280;35789;48.414;12.768;2023-04-24T01:55:00;96100.0;;;
68446;BMP280;35789;48.414;12.768;2023-04-24T02:00:00;96110.0;;;
68446;BMP280;35789;48.414;12.768;2023-04-24T02:05:00;96110.0;;;
68446;BMP280;35789;48.414;12.768;2023-04-24T02:10:00;96100.0;;;
68446;BMP280;35789;48.414;12.768;2023-04-24T02:15:00;96090.0;;;
68446;BMP280;35789;48.414;12.768;2023-04-24T02:20:00;96090.0;;;
68446;BMP280;35789;48.414;12.768;2023-04-24T02:25:00;96090.0;;;
68446;BMP280;35789;48.414;12.768;2023-04-24T02:30:00;96080.0;;;
68446;BMP280;35789;48.414;12.768;2023-04-24T02:35:00;96080.0;;;
68446;BMP280;35789;48.414;12.768;2023-04-24T02:40:00;96080.0;;;
68446;BMP280;35789;48.414;12.768;2023-04-24T02:45:04;96080.0;;;
68446;BMP280;35789;48.414;12.768;2023-04-24T02:50:00;96080.0;;;
68446;BMP280;35789;48.414;12.768;2023-04-24T02:55:00;96080.0;;;
68446;BMP280;35789;48.414;12.768;2023-04-24T03:00:00;96070.0;;;
68446;BMP280;35789;48.414;12.768;2023-04-24T03:05:00;96080.0;;;
68446;BMP280;35789;48.414;12.768;2023-04-24T03:10:00;96070.0;;;
68446;BMP280;35789;48.414;12.768;2023-04-24T03:15:00;96070.0;;;
68446;BMP280;35789;48.414;12.768;2023-04-24T03:20:00;96070.0;;;
68446;BMP280;35789;48.414;12.768;2023-04-24T03:25:01;96070.0;;;
68446;BMP280;35789;48.414;12.768;2023-04-24T03:30:00;96070.0;;;
68446;BMP280;35789;48.414;12.768;2023-04-24T03:35:00;96070.0;;;
68446;BMP280;35789;48.414;12.768;2023-04-24T03:40:00;96080.0;;;
68446;BMP280;35789;48.414;12.768;2023-04-24T03:45:00;96080.0;;;
68446;BMP280;35789;48.414;12.768;2023-04-24T03:50:01;96080.0;;;
68446;BMP280;35789;48.414;12.768;2023-04-24T03:55:00;96090.0;;;
68446;BMP280;35789;48.414;12.768;2023-04-24T04:00:00;96100.0;;;
68446;BMP280;35789;48.414;12.768;2023-04-24T04:05:00;96090.0;;;
68446;BMP280;35789;48.414;12.768;2023-04-24T04:10:00;96090.0;;;
68446;BMP280;35789;48.414;12.768;2023-04-24T04:15:00;96090.0;;;
68446;BMP280;35789;48.414;12.768;2023-04-24T04:20:00;96100.0;;;
68446;BMP280;35789;48.414;12.768;2023-04-24T04:25:00;96100.0;;;
68446;BMP280;35789;48.414;12.768;2023-04-24T04:30:01;96100.0;;;
68446;BMP280;35789;48.414;12.768;2023-04-24T04:35:01;96100.0;;;
68446;BMP280;35789;48.414;12.768;2023-04-24T04:40:02;96100.0;;;
68446;BMP280;35789;48.414;12.768;2023-04-24T04:45:00;96100.0;;;
68446;BMP280;35789;48.414;12.768;2023-04-24T04:50:01;96110.0;;;
68446;BMP280;35789;48.414;12.768;2023-04-24T04:55:00;96100.0;;;
68446;BMP280;35789;48.414;12.768;2023-04-24T05:00:00;96110.0;;;
68446;BMP280;35789;48.414;12.768;2023-04-24T05:05:00;96110.0;;;
68446;BMP280;35789;48.414;12.768;2023-04-24T05:10:00;96110.0;;;
68446;BMP280;35789;48.414;12.768;2023-04-24T05:15:00;96120.0;;;
68446;BMP280;35789;48.414;12.768;2023-04-24T05:20:00;96120.0;;;
68446;BMP280;35789;48.414;12.768;2023-04-24T05:25:00;96120.0;;;
68446;BMP280;35789;48.414;12.768;2023-04-24T05:30:00;96130.0;;;
68446;BMP280;35789;48.414;12.768;2023-04-24T05:35:00;96130.0;;;
68446;BMP280;35789;48.414;12.768;2023-04-24T05:40:00;96130.0;;;
68446;BMP280;35789;48.414;12.768;2023-04-24T05:45:00;96120.0;;;
68446;BMP280;35789;48.414;12.768;2023-04-24T05:50:00;96130.0;;;
68446;BMP280;35789;48.414;12.768;2023-04-24T05:55:00;96130.0;;;
68446;BMP280;35789;48.414;12.768;2023-04-24T06:00:00;96140.0;;;
68446;BMP280;35789;48.414;12.768;2023-04-24T06:05:00;96140.0;;;
68446;BMP280;35789;48.414;12.768;2023-04-24T06:10:00;96140.0;;;
68446;BMP280;35789;48.414;12.768;2023-04-24T06:15:00;96140.0;;;
68446;BMP280;35789;48.414;12.768;2023-04-24T06:20:00;96140.0;;;
68446;BMP280;35789;48.414;12.768;2023-04-24T06:25:00;96150.0;;;
68446;BMP280;35789;48.414;12.768;2023-04-24T06:30:00;96150.0;;;
68446;BMP280;35789;48.414;12.768;2023-04-24T06:35:00;96150.0;;;
68446;BMP280;35789;48.414;12.768;2023-04-24T06:40:01;96150.0;;;
68446;BMP280;35789;48.414;12.768;2023-04-24T06:45:00;96140.0;;;
68446;BMP280;35789;48.414;12.768;2023-04-24T06:50:00;96140.0;;;
68446;BMP280;35789;48.414;12.768;2023-04-24T06:55:01;96140.0;;;
68446;BMP280;35789;48.414;12.768;2023-04-24T07:00:00;96150.0;;;
68446;BMP280;35789;48.414;12.768;2023-04-24T07:05:00;96150.0;;;
68446;BMP280;35789;48.414;12.768;2023-04-24T07:10:00;96150.0;;;
68446;BMP280;35789;48.414;12.768;2023-04-24T07:15:00;96150.0;;;
68446;BMP280;35789;48.414;12.768;2023-04-24T07:20:00;96160.0;;;
68446;BMP280;35789;48.414;12.768;2023-04-24T07:25:00;96150.0;;;
68446;BMP280;35789;48.414;12.768;2023-04-24T07:30:01;96160.0;;;
68446;BMP280;35789;48.414;12.768;2023-04-24T07:35:00;96160.0;;;
68446;BMP280;35789;48.414;12.768;2023-04-24T07:40:00;96160.0;;;
68446;BMP280;35789;48.414;12.768;2023-04-24T07:45:00;96170.0;;;
68446;BMP280;35789;48.414;12.768;2023-04-24T07:50:00;96170.0;;;
68446;BMP280;35789;48.414;12.768;2023-04-24T07:55:00;96170.0;;;
68446;BMP280;35789;48.414;12.768;2023-04-24T08:00:00;96170.0;;;
68446;BMP280;35789;48.414;12.768;2023-04-24T08:05:00;96170.0;;;
68446;BMP280;35789;48.414;12.768;2023-04-24T08:10:00;96170.0;;;
68446;BMP280;35789;48.414;12.768;2023-04-24T08:15:00;96170.0;;;
68446;BMP280;35789;48.414;12.768;2023-04-24T08:20:00;96170.0;;;
68446;BMP280;35789;48.414;12.768;2023-04-24T08:25:00;96160.0;;;
68446;BMP280;35789;48.414;12.768;2023-04-24T08:30:00;96160.0;;;
68446;BMP280;35789;48.414;12.768;2023-04-24T08:35:00;96160.0;;;
68446;BMP280;35789;48.414;12.768;2023-04-24T08:40:01;96160.0;;;
68446;BMP280;35789;48.414;12.768;2023-04-24T08:45:00;96160.0;;;
68446;BMP280;35789;48.414;12.768;2023-04-24T08:50:02;96170.0;;;
68446;BMP280;35789;48.414;12.768;2023-04-24T08:55:01;96170.0;;;
68446;BMP280;35789;48.414;12.768;2023-04-24T09:00:01;96170.0;;;
68446;BMP280;35789;48.414;12.768;2023-04-24T09:05:01;96180.0;;;
68446;BMP280;35789;48.414;12.768;2023-04-24T09:10:02;96190.0;;;
68446;BMP280;35789;48.414;12.768;2023-04-24T09:15:02;96180.0;;;
68446;BMP280;35789;48.414;12.768;2023-04-24T09:20:00;96190.0;;;
68446;BMP280;35789;48.414;12.768;2023-04-24T09:25:03;96190.0;;;
68446;BMP280;35789;48.414;12.768;2023-04-24T09:30:01;96170.0;;;
68446;BMP280;35789;48.414;12.768;2023-04-24T09:35:11;96170.0;;;
68446;BMP280;35789;48.414;12.768;2023-04-24T09:40:11;96160.0;;;
68446;BMP280;35789;48.414;12.768;2023-04-24T09:45:01;96170.0;;;
68446;BMP280;35789;48.414;12.768;2023-04-24T09:50:10;96180.0;;;
68446;BMP280;35789;48.414;12.768;2023-04-24T09:55:00;96180.0;;;
68446;BMP280;35789;48.414;12.768;2023-04-24T10:00:00;96200.0;;;
68446;BMP280;35789;48.414;12.768;2023-04-24T10:05:00;96220.0;;;
68446;BMP280;35789;48.414;12.768;2023-04-24T10:10:01;96230.0;;;
68446;BMP280;35789;48.414;12.768;2023-04-24T10:15:01;96240.0;;;
68446;BMP280;35789;48.414;12.768;2023-04-24T10:20:01;96240.0;;;
68446;BMP280;35789;48.414;12.768;2023-04-24T10:25:03;96240.0;;;
68446;BMP280;35789;48.414;12.768;2023-04-24T10:30:02;96230.0;;;
68446;BMP280;35789;48.414;12.768;2023-04-24T10:35:00;96230.0;;;
68446;BMP280;35789;48.414;12.768;2023-04-24T10:40:00;96220.0;;;
68446;BMP280;35789;48.414;12.768;2023-04-24T10:45:05;96210.0;;;
68446;BMP280;35789;48.414;12.768;2023-04-24T10:50:00;96210.0;;;
68446;BMP280;35789;48.414;12.768;2023-04-24T10:55:01;96200.0;;;
68446;BMP280;35789;48.414;12.768;2023-04-24T11:00:14;96200.0;;;
68446;BMP280;35789;48.414;12.768;2023-04-24T11:05:03;96190.0;;;
68446;BMP280;35789;48.414;12.768;2023-04-24T11:10:00;96200.0;;;
68446;BMP280;35789;48.414;12.768;2023-04-24T11:15:01;96200.0;;;
68446;BMP280;35789;48.414;12.768;2023-04-24T11:20:02;96200.0;;;
68446;BMP280;35789;48.414;12.768;2023-04-24T11:25:01;96200.0;;;
68446;BMP280;35789;48.414;12.768;2023-04-24T11:30:03;96210.0;;;
68446;BMP280;35789;48.414;12.768;2023-04-24T11:35:02;96210.0;;;
68446;BMP280;35789;48.414;12.768;2023-04-24T11:40:01;96200.0;;;
68446;BMP280;35789;48.414;12.768;2023-04-24T11:45:01;96200.0;;;
68446;BMP280;35789;48.414;12.768;2023-04-24T11:50:02;96200.0;;;
68446;BMP280;35789;48.414;12.768;2023-04-24T11:55:00;96190.0;;;
68446;BMP280;35789;48.414;12.768;2023-04-24T12:00:00;96200.0;;;
68446;BMP280;35789;48.414;12.768;2023-04-24T12:05:00;96190.0;;;
68446;BMP280;35789;48.414;12.768;2023-04-24T12:10:00;96190.0;;;
68446;BMP280;35789;48.414;12.768;2023-04-24T12:15:08;96190.0;;;
68446;BMP280;35789;48.414;12.768;2023-04-24T12:20:04;96200.0;;;
68446;BMP280;35789;48.414;12.768;2023-04-24T12:25:03;96190.0;;;
68446;BMP280;35789;48.414;12.768;2023-04-24T12:30:04;96200.0;;;
68446;BMP280;35789;48.414;12.768;2023-04-24T12:35:00;96210.0;;;
68446;BMP280;35789;48.414;12.768;2023-04-24T12:40:04;96220.0;;;
68446;BMP280;35789;48.414;12.768;2023-04-24T12:45:03;96240.0;;;
68446;BMP280;35789;48.414;12.768;2023-04-24T12:50:01;96270.0;;;
68446;BMP280;35789;48.414;12.768;2023-04-24T12:55:01;96300.0;;;
68446;BMP280;35789;48.414;12.768;2023-04-24T13:00:01;96310.0;;;
68446;BMP280;35789;48.414;12.768;2023-04-24T13:05:01;96270.0;;;
68446;BMP280;35789;48.414;12.768;2023-04-24T13:10:00;96270.0;;;
68446;BMP280;35789;48.414;12.768;2023-04-24T13:15:01;96280.0;;;
68446;BMP280;35789;48.414;12.768;2023-04-24T13:20:00;96270.0;;;
68446;BMP280;35789;48.414;12.768;2023-04-24T13:25:00;96270.0;;;
68446;BMP280;35789;48.414;12.768;2023-04-24T13:30:00;96260.0;;;
68446;BMP280;35789;48.414;12.768;2023-04-24T13:35:00;96260.0;;;
68446;BMP280;35789;48.414;12.768;2023-04-24T13:40:00;96250.0;;;
68446;BMP280;35789;48.414;12.768;2023-04-24T13:45:00;96240.0;;;
68446;BMP280;35789;48.414;12.768;2023-04-24T13:50:00;96240.0;;;
68446;BMP280;35789;48.414;12.768;2023-04-24T13:55:00;96230.0;;;
68446;BMP280;35789;48.414;12.768;2023-04-24T14:00:00;96230.0;;;
68446;BMP280;35789;48.414;12.768;2023-04-24T14:05:00;96220.0;;;
68446;BMP280;35789;48.414;12.768;2023-04-24T14:10:00;96230.0;;;
68446;BMP280;35789;48.414;12.768;2023-04-24T14:15:00;96220.0;;;
68446;BMP280;35789;48.414;12.768;2023-04-24T14:20:00;96210.0;;;
68446;BMP280;35789;48.414;12.768;2023-04-24T14:25:00;96210.0;;;
68446;BMP280;35789;48.414;12.768;2023-04-24T14:30:01;96210.0;;;
68446;BMP280;35789;48.414;12.768;2023-04-24T14:35:00;96210.0;;;
68446;BMP280;35789;48.414;12.768;2023-04-24T14:40:00;96220.0;;;
68446;BMP280;35789;48.414;12.768;2023-04-24T14:45:00;96230.0;;;
68446;BMP280;35789;48.414;12.768;2023-04-24T14:50:00;96210.0;;;
68446;BMP280;35789;48.414;12.768;2023-04-24T14:55:00;96210.0;;;
68446;BMP280;35789;48.414;12.768;2023-04-24T15:00:00;96210.0;;;
68446;BMP280;35789;48.414;12.768;2023-04-24T15:05:00;96200.0;;;
68446;BMP280;35789;48.414;12.768;2023-04-24T15:10:00;96200.0;;;
68446;BMP280;35789;48.414;12.768;2023-04-24T15:15:00;96220.0;;;
68446;BMP280;35789;48.414;12.768;2023-04-24T15:20:01;96220.0;;;
68446;BMP280;35789;48.414;12.768;2023-04-24T15:25:00;96230.0;;;
68446;BMP280;35789;48.414;12.768;2023-04-24T15:30:01;96250.0;;;
68446;BMP280;35789;48.414;12.768;2023-04-24T15:35:00;96250.0;;;
68446;BMP280;35789;48.414;12.768;2023-04-24T15:40:00;96250.0;;;
68446;BMP280;35789;48.414;12.768;2023-04-24T15:45:00;96250.0;;;
68446;BMP280;35789;48.414;12.768;2023-04-24T15:50:01;96250.0;;;
68446;BMP280;35789;48.414;12.768;2023-04-24T15:55:03;96260.0;;;
68446;BMP280;35789;48.414;12.768;2023-04-24T16:00:02;96270.0;;;
68446;BMP280;35789;48.414;12.768;2023-04-24T16:05:00;96270.0;;;
68446;BMP280;35789;48.414;12.768;2023-04-24T16:10:00;96270.0;;;
68446;BMP280;35789;48.414;12.768;2023-04-24T16:15:00;96280.0;;;
68446;BMP280;35789;48.414;12.768;2023-04-24T16:20:00;96280.0;;;
68446;BMP280;35789;48.414;12.768;2023-04-24T16:25:00;96280.0;;;
68446;BMP280;35789;48.414;12.768;2023-04-24T16:30:00;96290.0;;;
68446;BMP280;35789;48.414;12.768;2023-04-24T16:35:00;96300.0;;;
68446;BMP280;35789;48.414;12.768;2023-04-24T16:40:01;96290.0;;;
68446;BMP280;35789;48.414;12.768;2023-04-24T16:45:00;96290.0;;;
68446;BMP280;35789;48.414;12.768;2023-04-24T16:50:00;96300.0;;;
68446;BMP280;35789;48.414;12.768;2023-04-24T16:55:00;96300.0;;;
68446;BMP280;35789;48.414;12.768;2023-04-24T17:00:00;96300.0;;;
68446;BMP280;35789;48.414;12.768;2023-04-24T17:05:00;96300.0;;;
68446;BMP280;35789;48.414;12.768;2023-04-24T17:10:00;96300.0;;;
68446;BMP280;35789;48.414;12.768;2023-04-24T17:15:00;96310.0;;;
68446;BMP280;35789;48.414;12.768;2023-04-24T17:20:00;96310.0;;;
68446;BMP280;35789;48.414;12.768;2023-04-24T17:25:00;96320.0;;;
68446;BMP280;35789;48.414;12.768;2023-04-24T17:30:00;96320.0;;;
68446;BMP280;35789;48.414;12.768;2023-04-24T17:35:00;96320.0;;;
68446;BMP280;35789;48.414;12.768;2023-04-24T17:40:00;96330.0;;;
68446;BMP280;35789;48.414;12.768;2023-04-24T17:45:00;96330.0;;;
68446;BMP280;35789;48.414;12.768;2023-04-24T17:50:00;96340.0;;;
68446;BMP280;35789;48.414;12.768;2023-04-24T17:55:00;96350.0;;;
68446;BMP280;35789;48.414;12.768;2023-04-24T18:00:00;96360.0;;;
68446;BMP280;35789;48.414;12.768;2023-04-24T18:05:00;96360.0;;;
68446;BMP280;35789;48.414;12.768;2023-04-24T18:10:00;96370.0;;;
68446;BMP280;35789;48.414;12.768;2023-04-24T18:15:00;96380.0;;;
68446;BMP280;35789;48.414;12.768;2023-04-24T18:20:00;96380.0;;;
68446;BMP280;35789;48.414;12.768;2023-04-24T18:25:00;96390.0;;;
68446;BMP280;35789;48.414;12.768;2023-04-24T18:30:01;96390.0;;;
68446;BMP280;35789;48.414;12.768;2023-04-24T18:35:00;96390.0;;;
68446;BMP280;35789;48.414;12.768;2023-04-24T18:40:01;96400.0;;;
68446;BMP280;35789;48.414;12.768;2023-04-24T18:45:00;96410.0;;;
68446;BMP280;35789;48.414;12.768;2023-04-24T18:50:00;96420.0;;;
68446;BMP280;35789;48.414;12.768;2023-04-24T18:55:01;96420.0;;;
68446;BMP280;35789;48.414;12.768;2023-04-24T19:00:00;96420.0;;;
68446;BMP280;35789;48.414;12.768;2023-04-24T19:05:01;96430.0;;;
68446;BMP280;35789;48.414;12.768;2023-04-24T19:10:00;96430.0;;;
68446;BMP280;35789;48.414;12.768;2023-04-24T19:15:01;96440.0;;;
68446;BMP280;35789;48.414;12.768;2023-04-24T19:20:00;96450.0;;;
68446;BMP280;35789;48.414;12.768;2023-04-24T19:25:00;96460.0;;;
68446;BMP280;35789;48.414;12.768;2023-04-24T19:30:00;96460.0;;;
68446;BMP280;35789;48.414;12.768;2023-04-24T19:35:00;96470.0;;;
68446;BMP280;35789;48.414;12.768;2023-04-24T19:40:01;96470.0;;;
68446;BMP280;35789;48.414;12.768;2023-04-24T19:45:00;96480.0;;;
68446;BMP280;35789;48.414;12.768;2023-04-24T19:50:00;96470.0;;;
68446;BMP280;35789;48.414;12.768;2023-04-24T19:55:00;96480.0;;;
68446;BMP280;35789;48.414;12.768;2023-04-24T20:00:00;96490.0;;;
68446;BMP280;35789;48.414;12.768;2023-04-24T20:05:00;96490.0;;;
68446;BMP280;35789;48.414;12.768;2023-04-24T20:10:00;96490.0;;;
68446;BMP280;35789;48.414;12.768;2023-04-24T20:15:01;96490.0;;;
68446;BMP280;35789;48.414;12.768;2023-04-24T20:20:00;96480.0;;;
68446;BMP280;35789;48.414;12.768;2023-04-24T20:25:00;96490.0;;;
68446;BMP280;35789;48.414;12.768;2023-04-24T20:30:01;96490.0;;;
68446;BMP280;35789;48.414;12.768;2023-04-24T20:35:00;96500.0;;;
68446;BMP280;35789;48.414;12.768;2023-04-24T20:40:01;96500.0;;;
68446;BMP280;35789;48.414;12.768;2023-04-24T20:45:00;96510.0;;;
68446;BMP280;35789;48.414;12.768;2023-04-24T20:50:00;96510.0;;;
68446;BMP280;35789;48.414;12.768;2023-04-24T20:55:00;96510.0;;;
68446;BMP280;35789;48.414;12.768;2023-04-24T21:00:00;96520.0;;;
68446;BMP280;35789;48.414;12.768;2023-04-24T21:05:00;96510.0;;;
68446;BMP280;35789;48.414;12.768;2023-04-24T21:10:00;96510.0;;;
68446;BMP280;35789;48.414;12.768;2023-04-24T21:15:00;96510.0;;;
68446;BMP280;35789;48.414;12.768;2023-04-24T21:20:00;96510.0;;;
68446;BMP280;35789;48.414;12.768;2023-04-24T21:25:00;96500.0;;;
68446;BMP280;35789;48.414;12.768;2023-04-24T21:30:00;96500.0;;;
68446;BMP280;35789;48.414;12.768;2023-04-24T21:35:00;96500.0;;;
68446;BMP280;35789;48.414;12.768;2023-04-24T21:40:00;96500.0;;;
68446;BMP280;35789;48.414;12.768;2023-04-24T21:45:00;96490.0;;;
68446;BMP280;35789;48.414;12.768;2023-04-24T21:50:01;96490.0;;;
68446;BMP280;35789;48.414;12.768;2023-04-24T21:55:00;96490.0;;;
68446;BMP280;35789;48.414;12.768;2023-04-24T22:00:00;96490.0;;;
68446;BMP280;35789;48.414;12.768;2023-04-24T22:05:00;96480.0;;;
68446;BMP280;35789;48.414;12.768;2023-04-24T22:10:00;96470.0;;;
68446;BMP280;35789;48.414;12.768;2023-04-24T22:15:00;96470.0;;;
68446;BMP280;35789;48.414;12.768;2023-04-24T22:20:01;96470.0;;;
68446;BMP280;35789;48.414;12.768;2023-04-24T22:25:00;96480.0;;;
68446;BMP280;35789;48.414;12.768;2023-04-24T22:30:01;96470.0;;;
68446;BMP280;35789;48.414;12.768;2023-04-24T22:35:00;96470.0;;;
68446;BMP280;35789;48.414;12.768;2023-04-24T22:40:00;96470.0;;;
68446;BMP280;35789;48.414;12.768;2023-04-24T22:45:01;96470.0;;;
68446;BMP280;35789;48.414;12.768;2023-04-24T22:50:00;96470.0;;;
68446;BMP280;35789;48.414;12.768;2023-04-24T22:55:00;96470.0;;;
68446;BMP280;35789;48.414;12.768;2023-04-24T23:00:02;96470.0;;;
68446;BMP280;35789;48.414;12.768;2023-04-24T23:05:00;96470.0;;;
68446;BMP280;35789;48.414;12.768;2023-04-24T23:10:00;96460.0;;;
68446;BMP280;35789;48.414;12.768;2023-04-24T23:15:00;96450.0;;;
68446;BMP280;35789;48.414;12.768;2023-04-24T23:20:00;96450.0;;;
68446;BMP280;35789;48.414;12.768;2023-04-24T23:25:00;96450.0;;;
68446;BMP280;35789;48.414;12.768;2023-04-24T23:30:00;96450.0;;;
68446;BMP280;35789;48.414;12.768;2023-04-24T23:35:00;96450.0;;;
68446;BMP280;35789;48.414;12.768;2023-04-24T23:40:00;96450.0;;;
68446;BMP280;35789;48.414;12.768;2023-04-24T23:45:00;96440.0;;;
68446;BMP280;35789;48.414;12.768;2023-04-24T23:50:00;96440.0;;;
68446;BMP280;35789;48.414;12.768;2023-04-24T23:55:00;96430.0;;;
